• Join FlightAware (Why Join?)
  • Login
  • US Flag 
01:57PM EDT


 

Airport Tracker/Info


-or-


 

Live Flight TrackerFlight Track Log ✈ WJA725 ✈ 09-May-2013 ✈ CYYZ - CYVR

Flight Track Log - Related Links

Times and Time Zones

All times are in EDT time to prevent confusion due to time zone crossing. See the WJA725 flight status page for this flight to view local times or setup timezone preferences in your user account.

Time Position Orientation Groundspeed Altitude Reporting Facility
EDT Latitude Longitude Course Direction KTS MPH feet Rate Location/Type
10:37PM 43.6833 -79.5333 44° Northeast 180 207 2,100  Level Toronto Center
10:38PM 43.7333 -79.4667 44° Northeast 220 253 4,200 2,040 Climbing Toronto Center
10:39PM 43.8000 -79.5000 340° North 270 311 6,200 2,340 Climbing Toronto Center
10:40PM 43.8333 -79.5833 299° West 280 322 8,900 2,400 Climbing Toronto Center
10:41PM 43.8500 -79.7000 281° West 290 334 11,100 1,800 Climbing Toronto Center
10:42PM 43.8667 -79.8333 280° West 350 403 12,600 1,920 Climbing Toronto Center
10:43PM 43.8833 -79.9500 281° West 370 426 15,000 2,520 Climbing Toronto Center
10:44PM 43.9167 -80.1000 287° West 380 437 17,700 2,400 Climbing Toronto Center
10:45PM 43.9833 -80.2167 308° West 390 449 19,800 2,100 Climbing Toronto Center
10:46PM 44.0667 -80.3333 315° West 400 460 22,000 1,860 Climbing Toronto Center
10:47PM 44.1333 -80.4500 309° West 410 472 23,600 1,680 Climbing Toronto Center
10:48PM 44.2167 -80.5667 315° West 420 483 25,400 1,800 Climbing Toronto Center
10:49PM 44.3000 -80.7000 311° West 420 483 27,200 1,620 Climbing Toronto Center
10:50PM 44.3667 -80.8167 309° West 430 495 28,700 1,560 Climbing Toronto Center
10:51PM 44.4333 -80.9667 302° West 420 483 30,400 1,560 Climbing Toronto Center
10:52PM 44.5167 -81.0833 315° West 420 483 31,900 1,740 Climbing Toronto Center
10:53PM 44.5833 -81.2000 309° West 410 472 33,900 1,620 Climbing Toronto Center
10:54PM 44.6500 -81.3000 313° West 400 460 35,200 1,020 Climbing Toronto Center
10:55PM 44.7333 -81.4167 315° West 400 460 36,000 360 Climbing Toronto Center
10:56PM 44.8000 -81.5333 309° West 390 449 36,000  Level Toronto Center
10:57PM 44.8833 -81.6500 315° West 400 460 36,000  Level Toronto Center
10:58PM 44.9500 -81.7833 305° West 390 449 36,000  Level Toronto Center
10:59PM 45.0333 -81.9000 315° West 400 460 36,000  Level Toronto Center
11:00PM 45.0833 -82.0167 301° West 390 449 36,000  Level Toronto Center
11:01PM 45.1500 -82.1333 309° West 400 460 36,000  Level Toronto Center
11:02PM 45.2333 -82.2667 312° West 390 449 36,000  Level Toronto Center
11:03PM 45.2833 -82.3833 301° West 390 449 36,000  Level Toronto Center
11:04PM 45.3333 -82.5333 295° West 380 437 36,000  Level Toronto Center
11:05PM 45.3667 -82.6667 290° West 380 437 36,000  Level Toronto Center
11:06PM 45.4278 -82.9111 290° West 381 438 36,000  Level Minneapolis Center
11:07PM 45.4639 -83.0539 290° West 383 441 36,000  Level Minneapolis Center
11:08PM 45.4989 -83.1967 289° West 383 441 36,000  Level Minneapolis Center
11:09PM 45.5322 -83.3378 289° West 380 437 36,000  Level Minneapolis Center
11:11PM 45.5672 -83.4828 289° West 384 442 36,000  Level Minneapolis Center
11:12PM 45.6092 -83.6550 289° West 385 443 36,000  Level Minneapolis Center
11:13PM 45.6503 -83.8256 289° West 383 441 36,000  Level Minneapolis Center
11:14PM 45.6836 -83.9681 289° West 382 440 36,000  Level Minneapolis Center
11:15PM 45.7172 -84.1114 289° West 381 438 36,000  Level Minneapolis Center
11:16PM 45.7567 -84.2811 288° West 378 435 36,000  Level Minneapolis Center
11:17PM 45.7889 -84.4217 288° West 376 433 36,000  Level Minneapolis Center
11:18PM 45.8211 -84.5625 288° West 376 433 36,000  Level Minneapolis Center
11:19PM 45.8542 -84.7042 289° West 376 433 36,000  Level Minneapolis Center
11:20PM 45.8919 -84.8747 288° West 376 433 36,000  Level Minneapolis Center
11:21PM 45.9236 -85.0167 288° West 376 433 36,000  Level Minneapolis Center
11:22PM 45.9547 -85.1578 288° West 374 430 36,000  Level Minneapolis Center
11:23PM 45.9933 -85.3303 288° West 380 437 36,000  Level Minneapolis Center
11:24PM 46.0253 -85.4744 288° West 381 438 36,000  Level Minneapolis Center
11:25PM 46.0564 -85.6200 287° West 381 438 36,000  Level Minneapolis Center
11:26PM 46.0886 -85.7672 288° West 387 445 36,000  Level Minneapolis Center
11:28PM 46.1200 -85.9133 287° West 384 442 36,000  Level Minneapolis Center
11:29PM 46.1636 -86.1178 287° West 384 442 36,000  Level Minneapolis Center
11:30PM 46.1878 -86.2350 287° West 383 441 36,000  Level Minneapolis Center
11:31PM 46.2250 -86.4092 287° West 381 438 36,000  Level Minneapolis Center
11:32PM 46.2550 -86.5547 287° West 381 438 36,000  Level Minneapolis Center
11:33PM 46.2856 -86.7006 287° West 382 440 36,000  Level Minneapolis Center
11:34PM 46.3089 -86.8178 286° West 381 438 36,000  Level Minneapolis Center
11:35PM 46.3453 -86.9933 287° West 381 438 36,000  Level Minneapolis Center
11:36PM 46.3750 -87.1417 286° West 383 441 36,000  Level Minneapolis Center
11:37PM 46.4114 -87.3194 287° West 385 443 36,000  Level Minneapolis Center
11:38PM 46.4403 -87.4681 286° West 383 441 36,000  Level Minneapolis Center
11:39PM 46.4706 -87.6167 287° West 386 444 36,000  Level Minneapolis Center
11:40PM 46.5000 -87.7697 286° West 390 449 36,000  Level Minneapolis Center
11:41PM 46.5292 -87.9194 286° West 388 447 36,000  Level Minneapolis Center
11:42PM 46.5528 -88.0406 286° West 390 449 36,000  Level Minneapolis Center
11:43PM 46.5872 -88.2206 286° West 387 445 36,000  Level Minneapolis Center
11:44PM 46.6158 -88.3689 286° West 384 442 36,000  Level Minneapolis Center
11:45PM 46.6497 -88.5497 285° West 388 447 36,000  Level Minneapolis Center
11:46PM 46.6772 -88.6986 285° West 385 443 36,000  Level Minneapolis Center
11:47PM 46.7056 -88.8511 285° West 389 448 36,000  Level Minneapolis Center
11:48PM 46.7286 -88.9742 285° West 393 452 36,000  Level Minneapolis Center
11:49PM 46.7622 -89.1558 285° West 391 450 36,000  Level Minneapolis Center
11:50PM 46.7881 -89.3081 284° West 390 449 36,000  Level Minneapolis Center
11:51PM 46.8156 -89.4606 285° West 390 449 36,000  Level Minneapolis Center
11:52PM 46.8428 -89.6133 285° West 391 450 36,000  Level Minneapolis Center
11:53PM 46.8700 -89.7661 285° West 391 450 36,000  Level Minneapolis Center
11:54PM 46.8958 -89.9192 284° West 390 449 36,000  Level Minneapolis Center
11:55PM 46.9281 -90.1025 284° West 390 449 36,000  Level Minneapolis Center
11:56PM 46.9547 -90.2561 284° West 389 448 36,000  Level Minneapolis Center
11:57PM 46.9814 -90.4125 284° West 395 455 36,000  Level Minneapolis Center
11:58PM 47.0050 -90.5586 283° West 399 459 36,000  Level Minneapolis Center
11:59PM 47.0308 -90.7156 284° West 397 457 36,000  Level Minneapolis Center
12:00AM 47.0578 -90.8719 284° West 397 457 36,000  Level Minneapolis Center
12:01AM 47.0833 -91.0300 283° West 399 459 36,000  Level Minneapolis Center
12:02AM 47.1092 -91.1897 283° West 402 463 36,000  Level Minneapolis Center
12:03AM 47.1411 -91.3825 284° West 407 468 36,000  Level Minneapolis Center
12:04AM 47.1656 -91.5447 283° West 408 470 36,000  Level Minneapolis Center
12:05AM 47.1903 -91.7056 283° West 405 466 36,000  Level Minneapolis Center
12:07AM 47.2167 -91.8700 283° West 412 474 36,000  Level Minneapolis Center
12:08AM 47.2461 -92.0656 283° West 411 473 36,000  Level Minneapolis Center
12:09AM 47.2703 -92.2306 282° West 412 474 36,000  Level Minneapolis Center
12:10AM 47.2953 -92.3936 283° West 411 473 36,000  Level Minneapolis Center
12:11AM 47.3206 -92.5581 283° West 412 474 36,000  Level Minneapolis Center
12:12AM 47.3447 -92.7217 282° West 410 472 36,000  Level Minneapolis Center
12:13AM 47.3686 -92.8867 282° West 412 474 36,000  Level Minneapolis Center
12:14AM 47.4006 -93.1058 282° West 410 472 36,000  Level Minneapolis Center
12:15AM 47.4228 -93.2678 282° West 407 468 36,000  Level Minneapolis Center
12:16AM 47.4453 -93.4283 282° West 415 478 36,000  Level Minneapolis Center
12:17AM 47.4683 -93.5939 282° West 414 476 36,000  Level Minneapolis Center
12:18AM 47.4911 -93.7594 282° West 414 476 36,000  Level Minneapolis Center
12:19AM 47.5142 -93.9244 282° West 412 474 36,000  Level Minneapolis Center
12:20AM 47.5358 -94.0906 281° West 413 475 36,000  Level Minneapolis Center
12:21AM 47.5572 -94.2575 281° West 413 475 36,000  Level Minneapolis Center
12:22AM 47.5794 -94.4217 281° West 411 473 36,000  Level Minneapolis Center
12:23AM 47.6011 -94.5883 281° West 410 472 36,000  Level Minneapolis Center
12:24AM 47.6203 -94.7539 280° West 410 472 36,000  Level Minneapolis Center
12:25AM 47.6464 -94.9528 281° West 409 471 36,000  Level Minneapolis Center
12:26AM 47.6667 -95.1161 281° West 406 467 36,000  Level Minneapolis Center
12:27AM 47.6858 -95.2808 280° West 406 467 36,000  Level Minneapolis Center
12:28AM 47.7058 -95.4458 280° West 407 468 36,000  Level Minneapolis Center
12:29AM 47.7269 -95.6153 281° West 408 470 36,000  Level Minneapolis Center
12:30AM 47.7464 -95.7800 280° West 407 468 36,000  Level Minneapolis Center
12:31AM 47.7656 -95.9472 280° West 410 472 36,000  Level Minneapolis Center
12:32AM 47.7814 -96.0806 280° West 411 473 36,000  Level Minneapolis Center
12:33AM 47.8053 -96.2811 280° West 412 474 36,000  Level Minneapolis Center
12:34AM 47.8247 -96.4489 280° West 413 475 36,000 120 Level Minneapolis Center
12:35AM 47.8431 -96.6175 279° West 414 476 36,300 600 Climbing Minneapolis Center
12:36AM 47.8597 -96.7847 279° West 411 473 37,300 840 Climbing Minneapolis Center
12:37AM 47.8794 -96.9517 280° West 411 473 38,000 300 Climbing Minneapolis Center
12:38AM 47.8983 -97.1206 280° West 414 476 38,000  Level Minneapolis Center
12:39AM 47.9167 -97.2900 279° West 415 478 38,000  Level Minneapolis Center
12:40AM 47.9325 -97.4583 278° West 415 478 38,000  Level Minneapolis Center
12:41AM 47.9522 -97.6606 278° West 415 478 38,000  Level Minneapolis Center
12:42AM 47.9686 -97.8289 278° West 415 478 38,000  Level Minneapolis Center
12:43AM 47.9864 -97.9983 279° West 417 480 38,000  Level Minneapolis Center
12:44AM 48.0025 -98.1686 278° West 418 481 38,000  Level Minneapolis Center
12:45AM 48.0186 -98.3394 278° West 418 481 38,000  Level Minneapolis Center
12:46AM 48.0344 -98.5075 278° West 416 479 38,000  Level Minneapolis Center
12:47AM 48.0511 -98.6747 279° West 413 475 38,000  Level Minneapolis Center
12:48AM 48.0672 -98.8419 278° West 410 472 38,000  Level Minneapolis Center
12:49AM 48.0822 -99.0097 278° West 410 472 38,000  Level Minneapolis Center
12:50AM 48.0975 -99.1750 278° West 408 470 38,000  Level Minneapolis Center
12:51AM 48.1117 -99.3408 277° West 405 466 38,000  Level Minneapolis Center
12:52AM 48.1256 -99.5086 277° West 406 467 38,000  Level Minneapolis Center
12:54AM 48.1381 -99.7144 275° West 409 471 38,000  Level Minneapolis Center
12:55AM 48.1547 -99.9153 277° West 406 467 38,000  Level Minneapolis Center
12:56AM 48.1697 -100.0828 278° West 405 466 38,000  Level Minneapolis Center
12:57AM 48.1836 -100.2858 276° West 408 470 38,000  Level Minneapolis Center
12:58AM 48.1933 -100.4206 276° West 407 468 38,000  Level Minneapolis Center
12:59AM 48.2089 -100.6233 277° West 408 470 38,000  Level Minneapolis Center
01:00AM 48.2214 -100.7917 276° West 407 468 38,000  Level Minneapolis Center
01:01AM 48.2333 -100.9606 276° West 408 470 38,000  Level Minneapolis Center
01:02AM 48.2475 -101.1339 277° West 407 468 38,000  Level Minneapolis Center
01:03AM 48.2567 -101.3053 275° West 411 473 38,000  Level Minneapolis Center
01:04AM 48.2781 -101.4747 281° West 413 475 38,000  Level Minneapolis Center
01:05AM 48.2989 -101.6450 280° West 414 476 38,000  Level Minneapolis Center
01:06AM 48.3111 -101.7486 280° West 418 481 38,000  Level Minneapolis Center
01:07AM 48.3308 -101.9217 280° West 421 484 38,000  Level Minneapolis Center
01:08AM 48.3506 -102.0939 280° West 420 483 38,000  Level Minneapolis Center
01:09AM 48.3686 -102.2661 279° West 419 482 38,000  Level Minneapolis Center
01:09AM 48.3872 -102.4053 281° West 420 483 38,000  Level Salt Lake Center
01:10AM 48.4078 -102.5778 280° West 419 482 38,000  Level Salt Lake Center
01:11AM 48.4242 -102.7453 278° West 417 480 38,000  Level Salt Lake Center
01:12AM 48.4244 -102.7772 271° West 412 474 38,000  Level Minneapolis Center
01:13AM 48.4436 -102.9500 280° West 416 479 38,000  Level Minneapolis Center
01:13AM 48.4594 -103.0850 280° West 413 475 38,000  Level Salt Lake Center
01:14AM 48.4767 -103.2547 279° West 413 475 38,000  Level Salt Lake Center
01:20AM 48.5660 -104.1780 279° West 416 479 38,000  Level FlightAware
01:20AM 48.5780 -104.3100 278° West 417 480 38,000  Level FlightAware
01:21AM 48.5870 -104.4080 278° West 417 480 38,000  Level FlightAware
01:22AM 48.6010 -104.5700 278° West 413 475 38,000  Level FlightAware
01:23AM 48.6110 -104.6840 278° West 412 474 38,000  Level FlightAware
01:23AM 48.6220 -104.8080 278° West 412 474 38,000  Level FlightAware
01:24AM 48.6320 -104.9260 277° West 412 474 38,000  Level FlightAware
01:25AM 48.6420 -105.0390 278° West 412 474 38,000  Level FlightAware
01:26AM 48.6530 -105.1770 277° West 412 474 38,000  Level FlightAware
01:26AM 48.6650 -105.3110 278° West 416 479 38,000  Level FlightAware
01:27AM 48.6480 -105.1190 98° East 416 479 38,000  Level FlightAware
01:28AM 48.6930 -105.6560 277° West 421 484 38,000  Level FlightAware
01:29AM 48.6970 -105.7100 276° West 422 486 38,000  Level FlightAware
01:30AM 48.7040 -105.8050 276° West 422 486 38,000  Level FlightAware
01:31AM 48.7230 -106.0500 277° West 420 483 38,000  Level FlightAware
01:31AM 48.7150 -105.9410 96° East 420 483 38,000  Level FlightAware
01:32AM 48.7250 -106.0730 277° West 420 483 38,000  Level FlightAware
01:33AM 48.7360 -106.2210 276° West 418 481 38,000  Level FlightAware
01:33AM 48.7420 -106.2980 277° West 417 480 38,000  Level FlightAware
01:34AM 48.7510 -106.4220 276° West 416 479 38,000  Level FlightAware
01:35AM 48.7580 -106.5210 276° West 416 479 38,000  Level FlightAware
01:35AM 48.7630 -106.5870 277° West 416 479 38,000  Level FlightAware
01:36AM 48.7740 -106.7460 276° West 417 480 38,000  Level FlightAware
01:37AM 48.7830 -106.8920 275° West 417 480 38,000  Level FlightAware
01:38AM 48.7900 -106.9790 277° West 417 480 38,000  Level FlightAware
01:39AM 48.7960 -107.0770 275° West 417 480 38,000  Level FlightAware
01:39AM 48.8010 -107.1760 274° West 417 480 38,000  Level FlightAware
01:40AM 48.8070 -107.2760 275° West 417 480 38,000  Level FlightAware
01:41AM 48.8140 -107.4000 275° West 417 480 38,000  Level FlightAware
01:42AM 48.8200 -107.4990 275° West 417 480 38,000  Level FlightAware
01:42AM 48.8260 -107.5980 275° West 417 480 38,000  Level FlightAware
01:43AM 48.8310 -107.6970 274° West 417 480 38,000  Level FlightAware
01:44AM 48.8370 -107.7970 275° West 417 480 38,000  Level FlightAware
01:44AM 48.8440 -107.9210 275° West 417 480 38,000  Level FlightAware
01:45AM 48.8500 -108.0200 275° West 417 480 38,000  Level FlightAware
01:46AM 48.8560 -108.1190 275° West 417 480 38,000  Level FlightAware
01:46AM 48.8610 -108.2190 274° West 417 480 38,000  Level FlightAware
01:47AM 48.8670 -108.3180 275° West 417 480 38,000  Level FlightAware
01:48AM 48.8730 -108.4170 275° West 417 480 38,000  Level FlightAware
01:48AM 48.8833 -109.1333 275° West 410 472 38,000  Level Edmonton Center
01:49AM 48.9000 -109.3167 278° West 410 472 38,000  Level Edmonton Center
01:50AM 48.9000 -109.5000 270° West 410 472 38,000  Level Edmonton Center
01:51AM 48.9364 -109.5950 300° West 420 483 38,000  Level Salt Lake Center
01:51AM 48.9167 -109.6833 251° West 410 472 38,000  Level Edmonton Center
01:52AM 48.9167 -109.8333 270° West 420 483 38,000  Level Edmonton Center
01:53AM 48.9519 -109.9506 295° West 423 487 38,000  Level Salt Lake Center
01:53AM 48.9333 -110.0333 251° West 420 483 38,000  Level Edmonton Center
01:54AM 48.9333 -110.1833 270° West 430 495 38,000  Level Edmonton Center
01:55AM 48.9667 -110.3667 286° West 430 495 38,000  Level Edmonton Center
01:56AM 48.9833 -110.5500 278° West 420 483 38,000  Level Edmonton Center
01:57AM 49.0000 -110.7333 278° West 420 483 38,000  Level Edmonton Center
01:58AM 49.0167 -110.9167 278° West 420 483 38,000  Level Edmonton Center
01:59AM 49.0500 -111.0833 287° West 420 483 38,000  Level Edmonton Center
02:00AM 49.0667 -111.2667 278° West 410 472 38,000  Level Edmonton Center
02:01AM 49.0833 -111.4500 278° West 410 472 38,000  Level Edmonton Center
02:02AM 49.1000 -111.6000 280° West 410 472 38,000  Level Edmonton Center
02:03AM 49.1167 -111.7833 278° West 410 472 38,000  Level Edmonton Center
02:04AM 49.1333 -111.9333 280° West 410 472 38,000  Level Edmonton Center
02:05AM 49.1667 -112.1333 284° West 400 460 38,000  Level Edmonton Center
02:06AM 49.1667 -112.2833 270° West 400 460 38,000  Level Edmonton Center
02:07AM 49.1833 -112.4667 278° West 410 472 38,000  Level Edmonton Center
02:08AM 49.2167 -112.6167 289° West 410 472 38,000  Level Edmonton Center
02:09AM 49.2333 -112.8167 277° West 400 460 38,000  Level Edmonton Center
02:10AM 49.2500 -112.9667 280° West 400 460 38,000  Level Edmonton Center
02:11AM 49.2833 -113.1500 286° West 400 460 38,000  Level Edmonton Center
02:12AM 49.2833 -113.3167 270° West 410 472 38,000  Level Edmonton Center
02:13AM 49.3000 -113.5000 278° West 410 472 38,000  Level Edmonton Center
02:14AM 49.3167 -113.6500 280° West 410 472 38,000  Level Edmonton Center
02:15AM 49.3333 -113.8333 278° West 400 460 38,000  Level Edmonton Center
02:16AM 49.3333 -114.0167 270° West 400 460 38,000  Level Edmonton Center
02:17AM 49.3667 -114.1833 287° West 410 472 38,000  Level Edmonton Center
02:18AM 49.3833 -114.2667 287° West 420 483 38,000  Level Vancouver Center
02:19AM 49.4000 -114.4500 278° West 410 472 38,000  Level Vancouver Center
02:20AM 49.4167 -114.6167 279° West 420 483 38,000  Level Vancouver Center
02:21AM 49.4333 -114.8000 278° West 420 483 38,000  Level Vancouver Center
02:22AM 49.4500 -114.9833 278° West 410 472 38,000  Level Vancouver Center
02:23AM 49.4667 -115.1500 279° West 420 483 38,000  Level Vancouver Center
02:24AM 49.4667 -115.3333 270° West 420 483 38,000  Level Vancouver Center
02:25AM 49.4833 -115.5167 278° West 420 483 38,000  Level Vancouver Center
02:26AM 49.5000 -115.7000 278° West 420 483 38,000  Level Vancouver Center
02:27AM 49.5333 -115.8667 287° West 410 472 38,000  Level Vancouver Center
02:28AM 49.5333 -116.0167 270° West 420 483 38,000  Level Vancouver Center
02:29AM 49.5333 -116.2000 270° West 410 472 38,000  Level Vancouver Center
02:30AM 49.5500 -116.3833 278° West 410 472 38,000  Level Vancouver Center
02:31AM 49.5500 -116.5667 270° West 410 472 38,000  Level Vancouver Center
02:32AM 49.5500 -116.7333 270° West 410 472 38,000  Level Vancouver Center
02:33AM 49.5500 -116.9167 270° West 410 472 38,000  Level Vancouver Center
02:34AM 49.5667 -117.1000 278° West 420 483 38,000  Level Vancouver Center
02:35AM 49.5500 -117.2833 262° West 420 483 38,000  Level Vancouver Center
02:36AM 49.5667 -117.4667 278° West 410 472 38,000  Level Vancouver Center
02:37AM 49.5500 -117.6500 262° West 410 472 38,000  Level Vancouver Center
02:38AM 49.5667 -117.8000 280° West 410 472 38,000  Level Vancouver Center
02:39AM 49.5500 -117.9833 262° West 410 472 38,000  Level Vancouver Center
02:40AM 49.5667 -118.1667 278° West 410 472 38,000  Level Vancouver Center
02:41AM 49.5500 -118.3333 261° West 410 472 38,000  Level Vancouver Center
02:42AM 49.5667 -118.5167 278° West 410 472 38,000  Level Vancouver Center
02:43AM 49.5500 -118.6833 261° West 410 472 38,000  Level Vancouver Center
02:44AM 49.5667 -118.8833 277° West 410 472 38,000  Level Vancouver Center
02:45AM 49.5500 -119.0333 260° West 410 472 38,000  Level Vancouver Center
02:46AM 49.5667 -119.2167 278° West 420 483 38,000  Level Vancouver Center
02:47AM 49.5500 -119.4000 262° West 410 472 38,000  Level Vancouver Center
02:48AM 49.5667 -119.5833 278° West 410 472 38,000  Level Vancouver Center
02:49AM 49.5500 -119.7500 261° West 410 472 38,000  Level Vancouver Center
02:50AM 49.5500 -119.9167 270° West 410 472 38,000  Level Vancouver Center
02:51AM 49.5500 -120.1000 270° West 410 472 38,000  Level Vancouver Center
02:52AM 49.5500 -120.2667 270° West 410 472 38,000  Level Vancouver Center
02:53AM 49.5333 -120.4500 262° West 410 472 38,000  Level Vancouver Center
02:54AM 49.5333 -120.6333 270° West 410 472 38,000  Level Vancouver Center
02:55AM 49.5167 -120.7833 260° West 410 472 38,000  Level Vancouver Center
02:56AM 49.5000 -121.0000 263° West 420 483 38,000 -1,200 Level Vancouver Center
02:57AM 49.4833 -121.1500 260° West 420 483 35,700 -2,640 Descending Vancouver Center
02:58AM 49.4667 -121.3333 262° West 420 483 32,800 -2,880 Descending Vancouver Center
02:59AM 49.4500 -121.5167 262° West 430 495 30,000 -2,700 Descending Vancouver Center
03:00AM 49.4333 -121.7167 263° West 440 506 27,400 -2,760 Descending Vancouver Center
03:01AM 49.4167 -121.9000 262° West 460 529 24,500 -2,880 Descending Vancouver Center
03:02AM 49.4167 -122.1000 270° West 450 518 21,700 -3,000 Descending Vancouver Center
03:03AM 49.4000 -122.2833 262° West 430 495 18,600 -2,640 Descending Vancouver Center
03:04AM 49.3500 -122.4333 243° Southwest 410 472 16,500 -2,100 Descending Vancouver Center
03:05AM 49.3000 -122.5667 240° Southwest 400 460 14,400 -2,220 Descending Vancouver Center
03:06AM 49.2500 -122.7333 245° Southwest 390 449 12,100 -2,100 Descending Vancouver Center
03:07AM 49.2167 -122.8833 251° West 380 437 10,300 -1,080 Descending Vancouver Center
03:08AM 49.2333 -123.0333 280° West 330 380 10,000 -720 Descending Vancouver Center
03:09AM 49.2500 -123.1333 284° West 280 322 8,900 -1,380 Descending Vancouver Center
03:10AM 49.2667 -123.2667 281° West 270 311 7,300 -1,560 Descending Vancouver Center
03:11AM 49.2833 -123.3667 284° West 270 311 5,800 -1,500 Descending Vancouver Center
03:12AM 49.2667 -123.4667 256° West 260 299 4,300 -1,320 Descending Vancouver Center
03:13AM 49.2000 -123.5000 198° South 260 299 3,200 -960 Descending Vancouver Center
03:14AM 49.1833 -123.3833 102° East 220 253 2,400 -900 Descending Vancouver Center
03:15AM 49.1833 -123.3167 90° East 200 230 1,400 -900 Descending Vancouver Center
03:16AM 49.1667 -123.2333 107° East 160 184 600 -840 Descending Vancouver Center